Time;durP1;ratioP1;P1;durP2;ratioP2;P2;SDS_P1;SDS_P2;PMS_P1;PMS_P2;Temp;Humidity;BMP_temperature;BMP_pressure;BME280_temperature;BME280_humidity;BME280_pressure;Samples;Min_cycle;Max_cycle;Signal;HPM_P1;HPM_P2
2022/09/26 00:00:18;;;;;;;1.63;1.53;;;;;;;10.51;83.13;100710.81;6231062;28;20612;-75
2022/09/26 00:03:42;;;;;;;2.37;1.50;;;;;;;10.65;82.55;100714.94;6231467;28;20232;-75
2022/09/26 00:07:03;;;;;;;1.77;1.30;;;;;;;10.70;82.74;100702.72;6199145;28;20245;-75
2022/09/26 00:10:24;;;;;;;2.20;1.63;;;;;;;10.75;82.52;100697.78;6203848;28;20229;-74
2022/09/26 00:13:45;;;;;;;3.10;1.40;;;;;;;10.69;83.23;100687.56;6234261;28;20217;-74
2022/09/26 00:17:06;;;;;;;1.93;1.27;;;;;;;10.77;83.16;100682.31;6226837;28;20221;-74
2022/09/26 00:20:29;;;;;;;1.40;1.30;;;;;;;10.60;83.76;100680.31;6227086;28;20232;-74
2022/09/26 00:23:50;;;;;;;4.03;1.43;;;;;;;10.62;83.75;100667.53;6243483;28;20263;-75
2022/09/26 00:27:11;;;;;;;4.03;1.70;;;;;;;10.64;83.26;100667.44;6238975;28;20685;-74
2022/09/26 00:30:32;;;;;;;2.40;1.90;;;;;;;10.55;83.66;100663.72;6239266;28;20224;-75
2022/09/26 00:33:54;;;;;;;4.33;1.67;;;;;;;10.56;82.91;100659.16;6218978;28;20228;-75
2022/09/26 00:37:17;;;;;;;3.00;2.00;;;;;;;10.65;82.15;100655.63;6235803;28;20231;-75
2022/09/26 00:40:38;;;;;;;3.97;2.63;;;;;;;10.49;82.76;100660.75;6215502;28;20981;-74
2022/09/26 00:43:59;;;;;;;3.07;2.30;;;;;;;10.49;82.73;100648.13;6235812;28;20260;-74
2022/09/26 00:47:27;;;;;;;5.77;3.43;;;;;;;10.51;83.10;100640.75;6231520;28;20237;-74
2022/09/26 00:50:48;;;;;;;2.67;2.47;;;;;;;10.55;82.89;100638.63;6209021;28;20263;-75
2022/09/26 00:54:13;;;;;;;2.07;1.53;;;;;;;10.50;83.00;100636.34;6234819;28;20662;-74
2022/09/26 00:57:40;;;;;;;3.63;1.23;;;;;;;10.38;83.13;100632.09;6235880;28;20324;-75
2022/09/26 01:01:01;;;;;;;1.73;1.30;;;;;;;10.25;84.21;100618.03;6199975;28;20225;-74
2022/09/26 01:04:24;;;;;;;2.13;1.30;;;;;;;10.24;84.26;100617.16;6234289;28;20221;-74
2022/09/26 01:07:46;;;;;;;1.67;1.30;;;;;;;10.20;84.42;100607.66;6212466;28;20220;-74
2022/09/26 01:11:10;;;;;;;0.80;0.80;;;;;;;10.19;84.26;100600.59;6227959;28;20323;-74
2022/09/26 01:14:33;;;;;;;1.40;1.27;;;;;;;10.17;84.92;100602.59;6247468;28;20290;-74
2022/09/26 01:17:54;;;;;;;1.67;1.57;;;;;;;10.20;84.37;100598.75;6236804;28;20629;-74
2022/09/26 01:22:01;;;;;;;3.87;1.87;;;;;;;10.23;84.94;100593.06;6234916;28;20236;-74
2022/09/26 01:25:29;;;;;;;1.47;1.40;;;;;;;10.27;84.55;100597.19;6233936;28;20633;-74
2022/09/26 01:29:17;;;;;;;5.33;3.30;;;;;;;10.22;84.70;100586.84;6223887;28;20232;-74
2022/09/26 01:33:07;;;;;;;1.93;1.40;;;;;;;10.27;84.67;100584.56;6228426;28;20645;-74
2022/09/26 01:36:50;;;;;;;3.90;1.60;;;;;;;10.26;84.49;100584.72;6232111;28;20228;-73
2022/09/26 01:40:18;;;;;;;2.87;1.40;;;;;;;10.25;84.62;100574.94;6211165;28;20232;-74
2022/09/26 01:43:48;;;;;;;3.50;1.07;;;;;;;10.34;84.41;100568.69;6223162;28;20302;-75
2022/09/26 01:47:14;;;;;;;3.07;2.00;;;;;;;10.41;84.25;100567.13;6243110;28;20236;-74
2022/09/26 01:50:43;;;;;;;2.30;1.47;;;;;;;10.42;83.83;100572.38;6226870;28;20314;-74
2022/09/26 01:54:11;;;;;;;2.77;1.97;;;;;;;10.40;83.95;100562.75;6227484;28;20223;-74
2022/09/26 01:57:40;;;;;;;6.40;2.80;;;;;;;10.39;84.36;100559.19;6217124;28;20780;-74
2022/09/26 02:01:07;;;;;;;3.10;1.90;;;;;;;10.41;84.46;100559.88;6224805;28;20811;-74
2022/09/26 02:04:34;;;;;;;3.57;1.87;;;;;;;10.48;83.75;100556.63;6229024;28;20702;-74
2022/09/26 02:08:02;;;;;;;3.63;1.80;;;;;;;10.47;83.67;100553.09;6218327;28;20456;-74
2022/09/26 02:11:24;;;;;;;17.50;2.77;;;;;;;10.47;84.22;100553.09;6231480;28;20252;-74
2022/09/26 02:14:48;;;;;;;4.33;1.73;;;;;;;10.49;84.13;100540.34;6220540;28;20232;-74
2022/09/26 02:18:14;;;;;;;1.33;1.00;;;;;;;10.58;83.42;100531.34;6232368;28;20644;-75
2022/09/26 02:21:37;;;;;;;1.43;1.13;;;;;;;10.61;83.64;100523.00;6222793;28;20315;-75
2022/09/26 02:24:59;;;;;;;2.70;2.17;;;;;;;10.60;83.87;100518.59;6225047;28;20234;-75
2022/09/26 02:28:22;;;;;;;1.27;1.17;;;;;;;10.74;82.91;100512.75;6216258;28;20231;-75
2022/09/26 02:31:50;;;;;;;0.80;0.80;;;;;;;10.76;82.68;100496.44;6233444;28;20272;-75
2022/09/26 02:38:49;;;;;;;1.20;0.93;;;;;;;10.81;82.27;100491.44;6223249;28;20244;-74
2022/09/26 02:42:40;;;;;;;1.07;0.90;;;;;;;10.83;81.88;100481.34;6231544;28;20252;-74
2022/09/26 02:46:15;;;;;;;0.90;0.90;;;;;;;10.76;82.28;100477.56;6237227;28;20224;-74
2022/09/26 02:49:50;;;;;;;1.00;0.80;;;;;;;10.82;81.81;100475.13;6236491;28;20236;-73
2022/09/26 02:53:27;;;;;;;1.20;1.07;;;;;;;10.78;82.22;100472.88;6234583;28;20259;-74
2022/09/26 02:57:08;;;;;;;1.00;1.00;;;;;;;10.82;82.23;100458.09;6232094;28;20322;-74
2022/09/26 03:00:44;;;;;;;1.73;1.63;;;;;;;10.79;81.47;100452.97;6244036;28;20645;-73
2022/09/26 03:04:10;;;;;;;1.67;1.00;;;;;;;10.77;82.53;100445.03;6223016;28;20224;-74
2022/09/26 03:07:37;;;;;;;2.47;1.17;;;;;;;10.81;83.15;100456.38;6239589;28;20224;-74
2022/09/26 03:11:03;;;;;;;2.63;1.30;;;;;;;10.63;83.67;100445.53;6220421;28;20251;-74
2022/09/26 03:14:25;;;;;;;2.60;1.60;;;;;;;10.65;83.53;100439.97;6232318;28;20233;-74
2022/09/26 03:17:52;;;;;;;2.43;1.70;;;;;;;10.61;83.58;100428.66;6219907;28;20610;-74
2022/09/26 03:21:14;;;;;;;2.00;1.70;;;;;;;10.56;83.59;100430.94;6220285;28;20227;-73
2022/09/26 03:24:36;;;;;;;3.03;2.00;;;;;;;10.65;83.58;100426.50;6234955;28;20229;-74
2022/09/26 03:27:57;;;;;;;2.40;1.83;;;;;;;10.71;83.02;100418.69;6224432;28;20609;-74
2022/09/26 03:31:21;;;;;;;1.83;1.23;;;;;;;10.64;83.50;100411.34;6228449;28;20236;-74
2022/09/26 03:35:12;;;;;;;2.03;1.37;;;;;;;10.65;83.77;100403.09;6209619;28;20229;-75
2022/09/26 03:38:33;;;;;;;1.57;1.47;;;;;;;10.56;83.96;100403.13;6206291;28;20233;-75
2022/09/26 03:42:02;;;;;;;6.13;2.27;;;;;;;10.57;83.94;100394.91;6223449;28;20229;-74
2022/09/26 03:45:27;;;;;;;2.50;2.00;;;;;;;10.56;84.19;100382.41;6228411;28;20232;-74
2022/09/26 03:48:54;;;;;;;2.00;1.50;;;;;;;10.42;84.64;100375.69;6237939;28;20263;-75
2022/09/26 03:52:16;;;;;;;7.37;1.93;;;;;;;10.42;84.44;100375.69;6232384;28;20225;-74
2022/09/26 03:55:38;;;;;;;4.03;1.83;;;;;;;10.45;84.95;100380.75;6218334;28;20233;-74
2022/09/26 03:58:59;;;;;;;4.43;1.43;;;;;;;10.49;84.81;100362.47;6231727;28;20232;-74
2022/09/26 04:02:21;;;;;;;3.23;1.40;;;;;;;10.42;84.92;100355.97;6225033;28;20827;-74
2022/09/26 04:05:49;;;;;;;1.67;1.57;;;;;;;10.51;84.58;100351.53;6228738;28;20263;-73
2022/09/26 04:09:12;;;;;;;1.13;1.03;;;;;;;10.34;85.07;100348.63;6232638;28;20610;-74
2022/09/26 04:12:34;;;;;;;2.83;1.57;;;;;;;10.36;84.76;100335.00;6243202;28;20244;-77
2022/09/26 04:15:55;;;;;;;2.63;1.83;;;;;;;10.34;85.09;100337.00;6227171;28;20233;-73
2022/09/26 04:19:19;;;;;;;2.67;1.57;;;;;;;10.21;85.56;100342.72;6223474;28;20273;-75
2022/09/26 04:22:40;;;;;;;2.00;1.33;;;;;;;10.18;85.58;100334.09;6232517;28;20237;-74
2022/09/26 04:26:05;;;;;;;2.27;1.43;;;;;;;10.28;85.54;100322.25;6230663;28;20232;-73
2022/09/26 04:29:27;;;;;;;1.53;1.33;;;;;;;10.22;85.76;100324.72;6212418;28;20232;-74
2022/09/26 04:33:11;;;;;;;1.93;1.47;;;;;;;10.25;86.17;100324.41;6196401;28;20234;-74
2022/09/26 04:36:43;;;;;;;3.43;2.63;;;;;;;10.21;86.33;100317.59;6207841;28;20327;-74
2022/09/26 04:40:04;;;;;;;3.70;1.53;;;;;;;10.20;85.94;100307.84;6214115;28;20234;-73
2022/09/26 04:43:29;;;;;;;1.57;1.47;;;;;;;10.26;85.72;100293.78;6220722;28;20225;-74
2022/09/26 04:46:50;;;;;;;2.87;2.10;;;;;;;10.27;85.33;100301.72;6228040;28;20260;-73
2022/09/26 04:50:13;;;;;;;1.83;1.70;;;;;;;10.25;85.99;100289.38;6230095;28;20228;-74
2022/09/26 04:53:36;;;;;;;2.77;1.77;;;;;;;10.27;85.77;100292.78;6231067;28;20236;-74
2022/09/26 04:57:05;;;;;;;2.63;2.40;;;;;;;10.27;85.69;100285.53;6221187;28;20244;-75
2022/09/26 05:00:28;;;;;;;3.97;2.03;;;;;;;10.30;85.80;100284.41;6221676;28;20281;-74
2022/09/26 05:03:56;;;;;;;2.67;1.80;;;;;;;10.38;85.11;100285.34;6223134;28;20236;-74
2022/09/26 05:07:17;;;;;;;3.47;1.83;;;;;;;10.36;85.21;100281.97;6232349;28;20233;-73
2022/09/26 05:10:38;;;;;;;5.13;2.30;;;;;;;10.35;85.63;100276.69;6210225;28;20228;-72
2022/09/26 05:14:01;;;;;;;1.37;1.37;;;;;;;10.43;84.55;100276.81;6227793;28;20233;-73
2022/09/26 05:17:25;;;;;;;1.90;1.80;;;;;;;10.43;84.64;100274.97;6214177;28;20237;-74
2022/09/26 05:20:50;;;;;;;2.77;1.47;;;;;;;10.52;84.97;100267.81;6216219;28;20239;-75
2022/09/26 05:27:48;;;;;;;4.97;1.90;;;;;;;10.59;84.29;100260.84;6223497;28;20505;-73
2022/09/26 05:31:09;;;;;;;3.67;2.27;;;;;;;10.67;83.36;100255.53;6232198;28;20228;-73
2022/09/26 05:34:33;;;;;;;2.20;1.73;;;;;;;10.72;83.66;100253.22;6194986;28;20950;-73
2022/09/26 05:37:58;;;;;;;3.70;1.17;;;;;;;10.72;83.49;100247.81;6225492;28;21063;-74
2022/09/26 05:41:20;;;;;;;1.63;1.53;;;;;;;10.77;83.57;100250.91;6214615;28;20709;-76
2022/09/26 05:44:41;;;;;;;2.20;1.10;;;;;;;10.80;82.76;100250.63;6219321;28;20448;-75
2022/09/26 05:48:04;;;;;;;4.50;1.43;;;;;;;10.83;83.03;100246.75;6213819;28;20536;-75
2022/09/26 05:51:28;;;;;;;12.37;3.70;;;;;;;10.81;83.43;100248.75;6225638;28;20542;-74
2022/09/26 05:54:49;;;;;;;1.87;1.57;;;;;;;10.82;82.86;100242.38;6207764;28;20528;-76
2022/09/26 06:03:10;;;;;;;2.10;1.40;;;;;;;10.88;82.45;100236.38;6164132;28;20607;-76
2022/09/26 06:06:47;;;;;;;1.23;1.13;;;;;;;10.94;82.30;100235.75;6199171;28;20578;-79
2022/09/26 06:10:11;;;;;;;1.10;0.90;;;;;;;10.98;82.19;100231.75;6195113;28;20221;-74
2022/09/26 06:13:46;;;;;;;3.13;2.10;;;;;;;11.08;81.87;100232.50;6197649;28;20230;-73
2022/09/26 06:17:07;;;;;;;1.30;1.10;;;;;;;11.08;81.19;100224.41;6207950;28;20417;-71
2022/09/26 06:20:29;;;;;;;1.47;1.07;;;;;;;11.14;81.04;100221.94;6218272;28;20492;-73
2022/09/26 06:23:51;;;;;;;2.10;1.20;;;;;;;11.19;80.86;100214.25;6211142;28;20238;-73
2022/09/26 06:27:14;;;;;;;2.20;1.00;;;;;;;11.19;80.77;100213.38;6215265;28;20316;-77
2022/09/26 06:30:35;;;;;;;2.00;1.20;;;;;;;11.26;80.29;100206.38;6221369;28;20240;-74
2022/09/26 06:34:04;;;;;;;1.77;1.37;;;;;;;11.24;80.00;100194.91;6188056;28;20252;-71
2022/09/26 06:37:29;;;;;;;1.60;1.23;;;;;;;11.26;80.38;100203.69;6194127;28;20241;-72
2022/09/26 06:40:53;;;;;;;1.57;1.30;;;;;;;11.31;80.50;100201.34;6210119;28;20323;-72
2022/09/26 06:44:15;;;;;;;1.53;1.43;;;;;;;11.31;80.30;100195.94;6201379;28;20311;-73
2022/09/26 06:48:01;;;;;;;1.30;1.20;;;;;;;11.28;80.82;100193.56;6218868;28;20212;-72
2022/09/26 06:51:40;;;;;;;1.67;1.50;;;;;;;11.34;80.23;100202.88;6213402;28;20443;-75
2022/09/26 06:55:02;;;;;;;1.37;1.27;;;;;;;11.29;80.07;100197.94;6221071;28;20236;-74
2022/09/26 06:58:24;;;;;;;1.10;1.00;;;;;;;11.35;80.19;100193.78;6209091;28;20329;-76
2022/09/26 07:01:51;;;;;;;1.87;1.27;;;;;;;11.34;80.02;100192.09;6198261;28;20242;-79
2022/09/26 07:05:31;;;;;;;1.20;1.10;;;;;;;11.46;80.25;100194.38;6235802;28;20243;-73
2022/09/26 07:08:52;;;;;;;0.93;0.90;;;;;;;11.52;80.23;100185.63;6230921;28;20734;-76
2022/09/26 07:12:17;;;;;;;1.97;1.70;;;;;;;11.46;80.00;100180.00;6225709;28;20237;-73
2022/09/26 07:15:44;;;;;;;1.30;1.20;;;;;;;11.42;80.77;100178.63;6226547;28;20237;-73
2022/09/26 07:19:24;;;;;;;1.30;1.17;;;;;;;11.39;80.65;100169.00;6227730;28;20267;-75
2022/09/26 07:23:03;;;;;;;1.63;1.53;;;;;;;11.45;81.32;100167.53;6218485;28;20662;-74
2022/09/26 07:26:24;;;;;;;1.00;0.83;;;;;;;11.50;80.47;100165.19;6221104;28;20325;-72
2022/09/26 07:29:46;;;;;;;3.07;2.37;;;;;;;11.49;81.51;100163.50;6214259;28;20229;-74
2022/09/26 07:33:09;;;;;;;1.43;1.33;;;;;;;11.53;81.59;100164.88;6201301;28;20252;-77
2022/09/26 07:36:38;;;;;;;0.67;0.60;;;;;;;11.31;82.02;100160.00;6204442;28;20606;-79
2022/09/26 07:39:59;;;;;;;1.63;1.53;;;;;;;11.35;81.89;100164.09;6224662;28;20228;-77
2022/09/26 07:43:21;;;;;;;2.47;1.10;;;;;;;11.44;82.24;100158.59;6238633;28;20598;-74
2022/09/26 07:50:25;;;;;;;1.70;1.60;;;;;;;11.44;82.05;100155.03;6222848;28;20228;-73
2022/09/26 07:53:58;;;;;;;1.30;1.10;;;;;;;11.51;81.81;100156.97;6190631;28;20236;-76
2022/09/26 07:57:37;;;;;;;1.63;1.20;;;;;;;11.38;82.95;100151.13;6199658;28;20256;-75
2022/09/26 08:01:11;;;;;;;6.07;2.03;;;;;;;11.44;83.03;100157.75;6202768;28;20232;-75
2022/09/26 08:04:53;;;;;;;2.17;1.60;;;;;;;11.49;81.82;100150.03;6196859;28;20232;-73
2022/09/26 08:08:15;;;;;;;2.17;1.43;;;;;;;11.55;82.45;100143.97;6190029;28;20228;-76
2022/09/26 08:11:54;;;;;;;3.27;1.70;;;;;;;11.43;82.78;100145.25;6198777;28;20244;-75
2022/09/26 08:15:33;;;;;;;4.63;2.23;;;;;;;11.53;81.92;100146.84;6216038;28;20241;-74
2022/09/26 08:19:00;;;;;;;2.27;2.07;;;;;;;11.80;81.33;100143.13;6464371;22;20227;-73
2022/09/26 08:22:21;;;;;;;2.83;1.97;;;;;;;11.86;80.51;100131.69;6230091;28;22024;-73
2022/09/26 08:25:46;;;;;;;3.00;2.00;;;;;;;11.94;80.85;100119.06;6232861;28;20231;-75
2022/09/26 08:29:18;;;;;;;4.20;1.37;;;;;;;12.02;80.23;100124.47;6244113;28;20231;-78
2022/09/26 08:32:41;;;;;;;1.90;1.60;;;;;;;12.04;79.17;100122.44;6252330;28;20232;-75
2022/09/26 08:36:04;;;;;;;3.30;2.43;;;;;;;12.14;79.25;100124.19;6253003;28;20675;-77
2022/09/26 08:39:35;;;;;;;2.83;2.17;;;;;;;12.14;78.99;100130.41;6278287;28;20240;-74
2022/09/26 08:43:45;;;;;;;2.40;1.70;;;;;;;12.33;79.04;100127.41;6221888;28;20327;-78
2022/09/26 08:47:46;;;;;;;3.83;1.97;;;;;;;12.39;78.50;100124.06;6231732;28;20223;-74
2022/09/26 08:51:29;;;;;;;3.17;2.20;;;;;;;12.46;78.76;100108.00;6237757;28;20236;-74
2022/09/26 08:54:54;;;;;;;5.47;2.57;;;;;;;12.57;77.85;100113.97;6258168;28;20243;-74
2022/09/26 08:58:19;;;;;;;2.60;2.40;;;;;;;12.64;77.13;100114.13;6260480;28;20456;-75
2022/09/26 09:01:45;;;;;;;6.77;2.23;;;;;;;12.43;77.18;100106.47;6260288;28;20306;-73
2022/09/26 09:05:17;;;;;;;9.93;2.23;;;;;;;12.53;77.03;100096.38;6248774;28;20239;-76
2022/09/26 09:08:40;;;;;;;3.70;2.70;;;;;;;12.77;76.11;100111.75;6246149;28;20223;-78
2022/09/26 09:12:30;;;;;;;5.70;2.60;;;;;;;13.00;75.52;100085.72;6265601;28;20216;-74
2022/09/26 09:16:23;;;;;;;5.40;2.97;;;;;;;12.81;75.77;100088.75;6255787;28;20232;-74
2022/09/26 09:20:10;;;;;;;4.57;2.83;;;;;;;12.86;75.58;100086.41;6255746;28;20227;-74
2022/09/26 09:24:18;;;;;;;3.10;2.47;;;;;;;12.77;75.44;100082.84;6212750;28;20499;-75
2022/09/26 09:27:52;;;;;;;3.37;2.50;;;;;;;12.78;76.18;100071.03;6285566;28;20607;-72
2022/09/26 09:31:15;;;;;;;4.20;3.27;;;;;;;12.83;76.15;100075.91;6281259;28;20651;-75
2022/09/26 09:34:48;;;;;;;4.17;2.77;;;;;;;12.95;75.74;100071.00;6277502;28;20243;-79
2022/09/26 09:38:38;;;;;;;3.83;3.27;;;;;;;12.66;76.51;100085.88;6268355;28;20227;-81
2022/09/26 09:42:22;;;;;;;4.37;2.30;;;;;;;12.71;75.79;100075.44;6286917;28;21540;-76
2022/09/26 09:45:47;;;;;;;2.50;2.30;;;;;;;12.77;75.28;100077.44;6275336;28;20603;-76
2022/09/26 09:49:19;;;;;;;4.30;2.77;;;;;;;12.84;75.68;100066.78;6273507;28;20306;-76
2022/09/26 09:52:53;;;;;;;3.13;2.33;;;;;;;12.85;74.63;100057.66;6270623;28;20222;-74
2022/09/26 09:56:27;;;;;;;4.50;2.60;;;;;;;12.87;75.07;100052.09;6272605;28;20472;-77
2022/09/26 10:00:04;;;;;;;1.67;1.57;;;;;;;12.83;74.64;100060.53;6264600;28;20305;-76
2022/09/26 10:03:40;;;;;;;1.80;1.70;;;;;;;12.90;74.45;100054.44;6270809;28;20230;-76
2022/09/26 10:07:04;;;;;;;2.03;1.83;;;;;;;12.93;73.24;100049.56;6288609;28;20236;-75
2022/09/26 10:10:37;;;;;;;3.63;1.53;;;;;;;12.94;73.41;100045.81;6271843;28;20358;-75
2022/09/26 10:14:33;;;;;;;2.70;2.50;;;;;;;13.04;72.98;100061.88;6265652;28;20318;-75
2022/09/26 10:18:02;;;;;;;10.30;2.20;;;;;;;13.12;73.06;100049.19;6272708;28;20219;-76
2022/09/26 10:21:33;;;;;;;1.67;1.53;;;;;;;13.07;71.63;100034.50;6271569;28;20235;-76
2022/09/26 10:25:02;;;;;;;4.57;1.77;;;;;;;13.16;71.04;100028.88;6276676;28;20230;-75
2022/09/26 10:28:27;;;;;;;1.83;1.73;;;;;;;13.43;70.88;100016.78;6270715;28;20304;-74
2022/09/26 10:31:55;;;;;;;2.40;2.20;;;;;;;13.35;70.07;100019.53;6287558;28;20436;-75
2022/09/26 10:35:19;;;;;;;2.00;1.90;;;;;;;13.38;70.28;100020.03;6301620;28;20788;-74
2022/09/26 10:42:31;;;;;;;3.33;1.40;;;;;;;13.69;68.64;100011.91;6276869;28;20239;-76
2022/09/26 10:45:55;;;;;;;4.00;1.33;;;;;;;13.38;69.55;100006.47;6269660;28;20864;-74
2022/09/26 10:49:31;;;;;;;2.30;2.13;;;;;;;13.36;69.51;100013.94;6283620;28;20226;-75
2022/09/26 10:53:22;;;;;;;1.60;1.10;;;;;;;13.77;68.62;99997.50;6274191;28;20250;-74
2022/09/26 10:56:49;;;;;;;1.80;1.17;;;;;;;13.81;67.27;99991.53;6285808;28;20234;-73
2022/09/26 11:00:18;;;;;;;2.33;1.40;;;;;;;13.97;67.32;99985.19;6279994;28;20341;-76
2022/09/26 11:03:43;;;;;;;12.63;2.90;;;;;;;13.85;68.38;99989.31;6292276;28;20227;-73
2022/09/26 11:07:23;;;;;;;1.47;1.20;;;;;;;13.58;68.12;99979.81;6284681;28;20226;-73
2022/09/26 11:10:55;;;;;;;2.37;2.17;;;;;;;13.57;69.03;99981.69;6291575;28;20235;-71
2022/09/26 11:14:28;;;;;;;1.77;1.27;;;;;;;13.61;69.23;99977.59;6282899;28;20239;-74
2022/09/26 11:18:05;;;;;;;2.90;1.73;;;;;;;13.69;69.05;99968.56;6263375;28;22398;-72
2022/09/26 11:21:33;;;;;;;2.20;1.70;;;;;;;13.81;67.85;99963.63;6262749;28;20235;-76
2022/09/26 11:25:05;;;;;;;1.50;1.40;;;;;;;13.23;69.86;99969.47;6285260;28;20236;-72
2022/09/26 11:28:33;;;;;;;1.27;1.17;;;;;;;13.22;70.42;99948.88;6280276;28;20601;-74
2022/09/26 11:32:16;;;;;;;3.93;2.17;;;;;;;13.14;71.95;99962.44;6267277;28;20634;-76
2022/09/26 11:36:06;;;;;;;2.73;2.33;;;;;;;13.06;72.97;99949.75;6270937;28;20620;-76
2022/09/26 11:39:44;;;;;;;1.60;1.50;;;;;;;12.88;73.81;99945.56;6273915;28;20345;-73
2022/09/26 11:43:26;;;;;;;3.33;1.73;;;;;;;12.80;74.51;99951.84;6282016;28;20574;-73
2022/09/26 11:47:08;;;;;;;1.87;1.77;;;;;;;12.70;76.00;99951.19;6249257;28;23440;-75
2022/09/26 11:50:51;;;;;;;2.27;1.97;;;;;;;12.58;76.47;99960.66;6265582;28;20223;-75
2022/09/26 11:54:33;;;;;;;2.27;2.00;;;;;;;12.60;77.76;99939.75;6276485;28;20231;-76
2022/09/26 11:58:06;;;;;;;3.47;2.40;;;;;;;12.68;78.26;99927.00;6285158;28;20235;-75
2022/09/26 12:01:41;;;;;;;3.17;1.70;;;;;;;12.45;78.57;99931.47;6284676;28;20426;-77
2022/09/26 12:05:24;;;;;;;3.07;1.80;;;;;;;12.49;79.52;99924.72;6281053;28;20290;-77
2022/09/26 12:09:02;;;;;;;1.97;1.87;;;;;;;12.37;79.59;99920.66;6283471;28;20227;-77
2022/09/26 12:12:31;;;;;;;2.30;2.10;;;;;;;12.44;80.23;99904.59;6276940;28;20224;-78
2022/09/26 12:16:00;;;;;;;6.33;1.90;;;;;;;12.41;79.59;99905.78;6277456;28;20803;-80
2022/09/26 12:19:34;;;;;;;4.67;2.50;;;;;;;12.45;79.70;99898.19;6284320;28;20231;-79
2022/09/26 12:23:01;;;;;;;2.30;1.70;;;;;;;12.45;80.11;99885.53;6288680;28;20254;-80
2022/09/26 12:26:33;;;;;;;3.20;2.67;;;;;;;12.44;78.84;99893.78;6285209;28;20318;-78
2022/09/26 12:30:04;;;;;;;2.57;2.37;;;;;;;12.52;78.54;99882.94;6282790;28;20251;-77
2022/09/26 12:33:57;;;;;;;2.20;2.00;;;;;;;12.52;77.66;99873.00;6277913;28;20251;-76
2022/09/26 12:37:40;;;;;;;1.50;1.40;;;;;;;12.57;77.59;99873.31;6284715;28;20235;-74
2022/09/26 12:41:14;;;;;;;3.77;1.87;;;;;;;12.69;77.67;99871.06;6281329;28;20223;-74
2022/09/26 12:44:53;;;;;;;2.50;1.57;;;;;;;12.87;77.77;99862.75;6290108;28;20243;-74
2022/09/26 12:48:28;;;;;;;5.03;1.97;;;;;;;12.66;78.27;99866.84;6283909;28;20227;-78
2022/09/26 12:51:53;;;;;;;2.70;1.70;;;;;;;12.74;78.42;99857.88;6277931;28;20234;-72
2022/09/26 12:55:24;;;;;;;3.23;1.43;;;;;;;13.02;78.07;99859.09;6277004;28;20223;-74
2022/09/26 12:59:13;;;;;;;2.93;1.70;;;;;;;13.20;77.82;99853.47;6272095;28;20648;-74
2022/09/26 13:03:01;;;;;;;1.63;1.53;;;;;;;12.93;77.74;99851.22;6230604;28;20252;-74
2022/09/26 13:07:04;;;;;;;1.50;1.40;;;;;;;12.82;78.51;99860.56;6231320;28;20265;-80
2022/09/26 13:10:49;;;;;;;1.83;1.57;;;;;;;12.79;79.22;99853.63;6250177;28;20230;-78
2022/09/26 13:14:38;;;;;;;2.90;2.33;;;;;;;12.78;79.35;99843.00;6244188;28;20658;-80
2022/09/26 13:18:05;;;;;;;3.33;2.17;;;;;;;12.77;80.38;99850.25;6278478;28;20231;-80
2022/09/26 13:21:42;;;;;;;1.60;1.47;;;;;;;12.75;79.72;99855.00;6280696;28;20429;-74
2022/09/26 13:25:16;;;;;;;2.80;2.40;;;;;;;12.72;80.19;99851.81;6279409;28;20222;-79
2022/09/26 13:28:43;;;;;;;3.17;1.57;;;;;;;12.69;80.02;99844.88;6271362;28;20322;-77
2022/09/26 13:32:14;;;;;;;2.10;1.50;;;;;;;12.64;80.02;99847.25;6278824;28;20223;-78
2022/09/26 13:35:39;;;;;;;2.30;1.80;;;;;;;12.70;79.97;99837.63;6275476;28;20255;-76
2022/09/26 13:39:05;;;;;;;1.97;1.43;;;;;;;12.62;80.35;99833.06;6281240;28;20261;-74
2022/09/26 13:42:35;;;;;;;2.70;2.27;;;;;;;12.56;79.73;99831.06;6274339;28;20325;-75
2022/09/26 13:46:04;;;;;;;6.27;1.67;;;;;;;12.69;79.58;99828.66;6278350;28;20809;-76
2022/09/26 13:49:36;;;;;;;2.10;1.63;;;;;;;12.72;79.15;99828.28;6272091;28;20561;-74
2022/09/26 13:53:06;;;;;;;2.63;1.40;;;;;;;12.68;78.44;99809.91;6277303;28;20223;-76
2022/09/26 13:56:48;;;;;;;1.77;1.17;;;;;;;12.69;78.29;99817.00;6259218;28;20309;-74
2022/09/26 14:00:51;;;;;;;2.47;1.67;;;;;;;12.68;78.65;99808.03;6269247;28;20224;-74
2022/09/26 14:04:18;;;;;;;1.47;1.10;;;;;;;12.62;79.03;99795.22;6278144;28;20341;-74
2022/09/26 14:11:48;;;;;;;1.03;1.03;;;;;;;12.45;79.02;99793.63;6241920;28;20820;-79
2022/09/26 14:15:17;;;;;;;1.70;1.60;;;;;;;12.44;80.74;99797.31;6282238;28;20234;-79
2022/09/26 14:19:05;;;;;;;3.23;1.90;;;;;;;12.29;82.31;99801.75;6277222;28;20262;-76
2022/09/26 14:22:36;;;;;;;6.13;2.73;;;;;;;12.52;83.42;99794.59;6261939;28;20608;-74
2022/09/26 14:26:04;;;;;;;1.67;1.57;;;;;;;12.51;82.50;99797.47;6277505;28;20383;-77
2022/09/26 14:29:36;;;;;;;3.10;1.30;;;;;;;12.20;82.52;99783.91;6278927;28;20230;-75
2022/09/26 14:33:03;;;;;;;1.47;1.37;;;;;;;12.42;83.18;99777.75;6288228;28;20230;-66
2022/09/26 14:36:27;;;;;;;2.13;1.37;;;;;;;12.46;82.84;99778.22;6267661;28;20266;-66
2022/09/26 14:39:51;;;;;;;2.60;1.63;;;;;;;12.57;82.88;99767.88;6282095;28;20230;-67
2022/09/26 14:43:14;;;;;;;1.57;1.47;;;;;;;12.58;83.22;99764.16;6284365;28;20308;-65
2022/09/26 14:46:36;;;;;;;2.10;1.17;;;;;;;12.60;82.22;99764.00;6278157;28;20314;-66
2022/09/26 14:50:04;;;;;;;5.03;2.43;;;;;;;12.30;82.83;99757.53;6276475;28;20310;-64
2022/09/26 14:53:37;;;;;;;2.80;1.80;;;;;;;12.53;82.55;99742.22;6281211;28;20249;-65
2022/09/26 14:57:02;;;;;;;1.70;1.30;;;;;;;12.38;83.43;99743.13;6279585;28;20255;-65
2022/09/26 15:00:38;;;;;;;2.40;2.17;;;;;;;12.62;82.81;99734.91;6256436;28;20509;-66
2022/09/26 15:04:02;;;;;;;2.33;2.13;;;;;;;12.20;84.64;99739.81;6288770;28;20223;-65
2022/09/26 15:07:25;;;;;;;2.23;1.67;;;;;;;12.31;85.12;99725.91;6284917;28;20238;-65
2022/09/26 15:10:48;;;;;;;1.73;1.63;;;;;;;12.32;84.74;99714.09;6273109;28;20678;-66
2022/09/26 15:14:25;;;;;;;4.40;2.07;;;;;;;12.21;85.52;99712.63;6275603;28;20561;-66
2022/09/26 15:17:52;;;;;;;2.83;1.30;;;;;;;12.55;84.46;99717.72;6280266;28;20317;-68
2022/09/26 15:21:25;;;;;;;2.60;1.40;;;;;;;12.19;85.15;99706.56;6277227;28;20219;-66
2022/09/26 15:24:46;;;;;;;1.30;1.20;;;;;;;12.01;85.46;99711.34;6281069;28;20227;-76
2022/09/26 15:28:09;;;;;;;1.23;1.07;;;;;;;12.04;85.70;99701.03;6276949;28;20234;-77
2022/09/26 15:31:39;;;;;;;1.73;1.60;;;;;;;11.90;86.55;99696.38;6283348;28;20698;-77
2022/09/26 15:35:02;;;;;;;1.43;1.23;;;;;;;11.97;86.32;99688.41;6268659;28;20227;-78
2022/09/26 15:38:23;;;;;;;1.53;1.20;;;;;;;11.89;85.77;99694.66;6272984;28;20231;-79
2022/09/26 15:45:31;;;;;;;1.73;1.00;;;;;;;11.72;87.07;99684.09;6280179;28;20234;-78
2022/09/26 15:48:54;;;;;;;1.53;1.43;;;;;;;11.73;86.70;99670.41;6274283;28;20839;-78
2022/09/26 15:52:15;;;;;;;2.00;1.90;;;;;;;11.92;87.46;99672.72;6264863;28;20234;-76
2022/09/26 15:55:44;;;;;;;2.23;1.97;;;;;;;12.14;86.99;99659.47;6255329;28;20719;-74
2022/09/26 15:59:11;;;;;;;16.00;14.73;;;;;;;12.44;86.27;99666.72;6269808;28;20257;-72
2022/09/26 16:02:35;;;;;;;39.83;35.63;;;;;;;12.34;83.79;99658.00;6269764;28;20616;-75
2022/09/26 16:05:57;;;;;;;12.10;10.83;;;;;;;12.44;84.43;99645.97;6267555;28;20238;-75
2022/09/26 16:09:21;;;;;;;2.50;1.60;;;;;;;11.88;85.22;99640.84;6280551;28;20238;-76
2022/09/26 16:12:42;;;;;;;1.93;1.20;;;;;;;11.76;87.16;99642.25;6275983;28;20231;-75
2022/09/26 16:16:07;;;;;;;0.93;0.90;;;;;;;11.57;87.73;99645.28;6278069;28;20558;-74
2022/09/26 16:19:30;;;;;;;2.93;1.07;;;;;;;11.53;88.05;99634.00;6260164;28;20310;-75
2022/09/26 16:22:54;;;;;;;1.50;1.37;;;;;;;11.42;88.50;99622.72;6266624;28;20235;-76
2022/09/26 16:26:24;;;;;;;1.37;1.27;;;;;;;11.43;90.17;99632.53;6273886;28;20258;-75
2022/09/26 16:29:51;;;;;;;1.30;0.90;;;;;;;11.47;88.66;99631.16;6281138;28;20560;-75
2022/09/26 16:33:32;;;;;;;2.10;1.33;;;;;;;11.49;89.45;99624.59;6269613;28;20549;-75
2022/09/26 16:36:53;;;;;;;2.13;1.20;;;;;;;11.46;90.24;99627.59;6273264;28;20224;-74
2022/09/26 16:40:18;;;;;;;1.43;1.33;;;;;;;11.49;89.72;99624.59;6276226;28;20219;-75
2022/09/26 16:43:40;;;;;;;1.80;1.13;;;;;;;11.47;89.96;99623.91;6277079;28;20231;-75